sensor_id;sensor_type;location;lat;lon;timestamp;P1;durP1;ratioP1;P2;durP2;ratioP2
8482;SDS011;4278;42.668;23.312;2022-10-28T00:01:55;5.77;;;3.10;;
8482;SDS011;4278;42.668;23.312;2022-10-28T00:04:22;7.20;;;3.37;;
8482;SDS011;4278;42.668;23.312;2022-10-28T00:06:48;7.53;;;3.20;;
8482;SDS011;4278;42.668;23.312;2022-10-28T00:09:16;9.00;;;3.00;;
8482;SDS011;4278;42.668;23.312;2022-10-28T00:11:43;5.67;;;3.60;;
8482;SDS011;4278;42.668;23.312;2022-10-28T00:14:09;7.20;;;3.33;;
8482;SDS011;4278;42.668;23.312;2022-10-28T00:16:37;7.20;;;3.90;;
8482;SDS011;4278;42.668;23.312;2022-10-28T00:19:05;10.53;;;4.53;;
8482;SDS011;4278;42.668;23.312;2022-10-28T00:21:33;7.57;;;4.50;;
8482;SDS011;4278;42.668;23.312;2022-10-28T00:23:59;7.33;;;4.53;;
8482;SDS011;4278;42.668;23.312;2022-10-28T00:26:28;10.80;;;4.77;;
8482;SDS011;4278;42.668;23.312;2022-10-28T00:28:55;8.63;;;4.60;;
8482;SDS011;4278;42.668;23.312;2022-10-28T00:31:23;7.70;;;4.37;;
8482;SDS011;4278;42.668;23.312;2022-10-28T00:33:49;8.07;;;4.80;;
8482;SDS011;4278;42.668;23.312;2022-10-28T00:36:16;6.47;;;3.83;;
8482;SDS011;4278;42.668;23.312;2022-10-28T00:38:44;7.70;;;3.53;;
8482;SDS011;4278;42.668;23.312;2022-10-28T00:41:11;6.07;;;3.87;;
8482;SDS011;4278;42.668;23.312;2022-10-28T00:43:40;5.83;;;4.00;;
8482;SDS011;4278;42.668;23.312;2022-10-28T00:46:12;6.83;;;3.90;;
8482;SDS011;4278;42.668;23.312;2022-10-28T00:48:40;8.83;;;4.50;;
8482;SDS011;4278;42.668;23.312;2022-10-28T00:51:08;10.87;;;4.77;;
8482;SDS011;4278;42.668;23.312;2022-10-28T00:53:35;9.37;;;4.63;;
8482;SDS011;4278;42.668;23.312;2022-10-28T00:56:02;11.87;;;4.53;;
8482;SDS011;4278;42.668;23.312;2022-10-28T00:58:29;10.03;;;4.57;;
8482;SDS011;4278;42.668;23.312;2022-10-28T01:00:57;8.40;;;4.37;;
8482;SDS011;4278;42.668;23.312;2022-10-28T01:03:24;6.97;;;4.27;;
8482;SDS011;4278;42.668;23.312;2022-10-28T01:05:51;9.20;;;4.40;;
8482;SDS011;4278;42.668;23.312;2022-10-28T01:08:17;7.33;;;4.60;;
8482;SDS011;4278;42.668;23.312;2022-10-28T01:10:52;10.70;;;5.07;;
8482;SDS011;4278;42.668;23.312;2022-10-28T01:13:23;11.17;;;5.80;;
8482;SDS011;4278;42.668;23.312;2022-10-28T01:15:55;10.90;;;5.27;;
8482;SDS011;4278;42.668;23.312;2022-10-28T01:18:27;8.93;;;5.03;;
8482;SDS011;4278;42.668;23.312;2022-10-28T01:23:47;9.30;;;4.93;;
8482;SDS011;4278;42.668;23.312;2022-10-28T01:26:22;8.57;;;4.70;;
8482;SDS011;4278;42.668;23.312;2022-10-28T01:29:15;11.07;;;4.83;;
8482;SDS011;4278;42.668;23.312;2022-10-28T01:31:48;9.53;;;4.97;;
8482;SDS011;4278;42.668;23.312;2022-10-28T01:34:17;7.50;;;4.17;;
8482;SDS011;4278;42.668;23.312;2022-10-28T01:36:49;10.47;;;4.97;;
8482;SDS011;4278;42.668;23.312;2022-10-28T01:39:20;10.07;;;4.07;;
8482;SDS011;4278;42.668;23.312;2022-10-28T01:41:49;8.90;;;3.97;;
8482;SDS011;4278;42.668;23.312;2022-10-28T01:44:20;5.23;;;3.80;;
8482;SDS011;4278;42.668;23.312;2022-10-28T01:46:50;12.90;;;4.37;;
8482;SDS011;4278;42.668;23.312;2022-10-28T01:49:21;7.07;;;4.10;;
8482;SDS011;4278;42.668;23.312;2022-10-28T01:51:51;10.00;;;4.30;;
8482;SDS011;4278;42.668;23.312;2022-10-28T01:54:21;7.50;;;4.10;;
8482;SDS011;4278;42.668;23.312;2022-10-28T01:56:48;10.00;;;4.53;;
8482;SDS011;4278;42.668;23.312;2022-10-28T01:59:17;9.70;;;4.10;;
8482;SDS011;4278;42.668;23.312;2022-10-28T02:01:44;6.90;;;4.20;;
8482;SDS011;4278;42.668;23.312;2022-10-28T02:04:12;7.70;;;4.40;;
8482;SDS011;4278;42.668;23.312;2022-10-28T02:06:38;4.23;;;3.73;;
8482;SDS011;4278;42.668;23.312;2022-10-28T02:09:09;10.53;;;4.10;;
8482;SDS011;4278;42.668;23.312;2022-10-28T02:14:28;6.93;;;4.13;;
8482;SDS011;4278;42.668;23.312;2022-10-28T02:16:59;5.40;;;3.67;;
8482;SDS011;4278;42.668;23.312;2022-10-28T02:19:31;6.67;;;4.13;;
8482;SDS011;4278;42.668;23.312;2022-10-28T02:22:06;8.40;;;4.37;;
8482;SDS011;4278;42.668;23.312;2022-10-28T02:24:37;8.23;;;4.03;;
8482;SDS011;4278;42.668;23.312;2022-10-28T02:27:07;6.60;;;3.70;;
8482;SDS011;4278;42.668;23.312;2022-10-28T02:29:37;7.23;;;3.87;;
8482;SDS011;4278;42.668;23.312;2022-10-28T02:32:07;10.17;;;4.30;;
8482;SDS011;4278;42.668;23.312;2022-10-28T02:34:36;8.37;;;4.77;;
8482;SDS011;4278;42.668;23.312;2022-10-28T02:37:05;7.97;;;4.63;;
8482;SDS011;4278;42.668;23.312;2022-10-28T02:39:34;7.73;;;3.97;;
8482;SDS011;4278;42.668;23.312;2022-10-28T02:42:02;7.10;;;4.30;;
8482;SDS011;4278;42.668;23.312;2022-10-28T02:44:32;8.97;;;4.13;;
8482;SDS011;4278;42.668;23.312;2022-10-28T02:47:00;6.37;;;4.33;;
8482;SDS011;4278;42.668;23.312;2022-10-28T02:49:29;9.50;;;4.20;;
8482;SDS011;4278;42.668;23.312;2022-10-28T02:51:59;8.13;;;4.30;;
8482;SDS011;4278;42.668;23.312;2022-10-28T02:54:28;8.07;;;4.17;;
8482;SDS011;4278;42.668;23.312;2022-10-28T02:56:58;8.93;;;4.20;;
8482;SDS011;4278;42.668;23.312;2022-10-28T02:59:25;7.30;;;4.50;;
8482;SDS011;4278;42.668;23.312;2022-10-28T03:01:51;11.53;;;5.13;;
8482;SDS011;4278;42.668;23.312;2022-10-28T03:04:18;8.67;;;4.57;;
8482;SDS011;4278;42.668;23.312;2022-10-28T03:06:44;9.07;;;4.73;;
8482;SDS011;4278;42.668;23.312;2022-10-28T03:09:12;9.23;;;4.50;;
8482;SDS011;4278;42.668;23.312;2022-10-28T03:11:39;6.07;;;4.27;;
8482;SDS011;4278;42.668;23.312;2022-10-28T03:14:05;8.17;;;4.93;;
8482;SDS011;4278;42.668;23.312;2022-10-28T03:16:32;8.73;;;5.13;;
8482;SDS011;4278;42.668;23.312;2022-10-28T03:18:58;9.63;;;5.13;;
8482;SDS011;4278;42.668;23.312;2022-10-28T03:21:25;7.93;;;5.17;;
8482;SDS011;4278;42.668;23.312;2022-10-28T03:23:52;12.87;;;4.90;;
8482;SDS011;4278;42.668;23.312;2022-10-28T03:26:20;9.43;;;5.20;;
8482;SDS011;4278;42.668;23.312;2022-10-28T03:28:46;6.90;;;5.10;;
8482;SDS011;4278;42.668;23.312;2022-10-28T03:31:13;9.40;;;5.10;;
8482;SDS011;4278;42.668;23.312;2022-10-28T03:33:39;9.87;;;5.23;;
8482;SDS011;4278;42.668;23.312;2022-10-28T03:36:06;11.53;;;5.50;;
8482;SDS011;4278;42.668;23.312;2022-10-28T03:38:33;11.77;;;6.37;;
8482;SDS011;4278;42.668;23.312;2022-10-28T03:40:59;10.77;;;5.53;;
8482;SDS011;4278;42.668;23.312;2022-10-28T03:43:27;11.57;;;6.17;;
8482;SDS011;4278;42.668;23.312;2022-10-28T03:45:54;10.23;;;6.53;;
8482;SDS011;4278;42.668;23.312;2022-10-28T03:48:20;19.27;;;7.40;;
8482;SDS011;4278;42.668;23.312;2022-10-28T03:50:50;13.83;;;6.10;;
8482;SDS011;4278;42.668;23.312;2022-10-28T03:53:17;11.27;;;6.63;;
8482;SDS011;4278;42.668;23.312;2022-10-28T03:55:44;9.77;;;5.77;;
8482;SDS011;4278;42.668;23.312;2022-10-28T03:58:16;12.80;;;6.60;;
8482;SDS011;4278;42.668;23.312;2022-10-28T04:00:44;14.33;;;6.57;;
8482;SDS011;4278;42.668;23.312;2022-10-28T04:03:10;12.07;;;6.53;;
8482;SDS011;4278;42.668;23.312;2022-10-28T04:05:37;14.17;;;7.00;;
8482;SDS011;4278;42.668;23.312;2022-10-28T04:08:03;14.63;;;6.67;;
8482;SDS011;4278;42.668;23.312;2022-10-28T04:10:30;14.30;;;6.87;;
8482;SDS011;4278;42.668;23.312;2022-10-28T04:12:58;13.17;;;7.37;;
8482;SDS011;4278;42.668;23.312;2022-10-28T04:15:24;14.03;;;6.80;;
8482;SDS011;4278;42.668;23.312;2022-10-28T04:17:52;13.17;;;7.03;;
8482;SDS011;4278;42.668;23.312;2022-10-28T04:20:19;17.27;;;6.67;;
8482;SDS011;4278;42.668;23.312;2022-10-28T04:22:45;10.40;;;6.43;;
8482;SDS011;4278;42.668;23.312;2022-10-28T04:25:12;14.33;;;7.40;;
8482;SDS011;4278;42.668;23.312;2022-10-28T04:27:38;11.87;;;6.40;;
8482;SDS011;4278;42.668;23.312;2022-10-28T04:30:05;15.23;;;8.60;;
8482;SDS011;4278;42.668;23.312;2022-10-28T04:32:32;13.43;;;6.10;;
8482;SDS011;4278;42.668;23.312;2022-10-28T04:35:00;13.73;;;7.37;;
8482;SDS011;4278;42.668;23.312;2022-10-28T04:37:26;16.60;;;6.70;;
8482;SDS011;4278;42.668;23.312;2022-10-28T04:39:53;15.23;;;6.67;;
8482;SDS011;4278;42.668;23.312;2022-10-28T04:42:19;10.43;;;6.27;;
8482;SDS011;4278;42.668;23.312;2022-10-28T04:44:46;13.07;;;7.13;;
8482;SDS011;4278;42.668;23.312;2022-10-28T04:47:12;12.53;;;6.37;;
8482;SDS011;4278;42.668;23.312;2022-10-28T04:49:39;13.23;;;6.63;;
8482;SDS011;4278;42.668;23.312;2022-10-28T04:52:07;12.87;;;6.37;;
8482;SDS011;4278;42.668;23.312;2022-10-28T04:54:33;11.20;;;6.07;;
8482;SDS011;4278;42.668;23.312;2022-10-28T04:57:00;15.23;;;6.80;;
8482;SDS011;4278;42.668;23.312;2022-10-28T04:59:26;9.23;;;6.13;;
8482;SDS011;4278;42.668;23.312;2022-10-28T05:01:52;12.73;;;6.57;;
8482;SDS011;4278;42.668;23.312;2022-10-28T05:04:19;11.03;;;6.07;;
8482;SDS011;4278;42.668;23.312;2022-10-28T05:06:46;15.53;;;6.53;;
8482;SDS011;4278;42.668;23.312;2022-10-28T05:09:15;13.33;;;5.90;;
8482;SDS011;4278;42.668;23.312;2022-10-28T05:11:41;9.43;;;5.70;;
8482;SDS011;4278;42.668;23.312;2022-10-28T05:14:08;10.47;;;5.90;;
8482;SDS011;4278;42.668;23.312;2022-10-28T05:16:34;10.47;;;5.73;;
8482;SDS011;4278;42.668;23.312;2022-10-28T05:19:01;11.60;;;5.53;;
8482;SDS011;4278;42.668;23.312;2022-10-28T05:21:27;15.23;;;5.57;;
8482;SDS011;4278;42.668;23.312;2022-10-28T05:23:56;13.57;;;5.83;;
8482;SDS011;4278;42.668;23.312;2022-10-28T05:26:24;12.57;;;6.13;;
8482;SDS011;4278;42.668;23.312;2022-10-28T05:28:51;11.17;;;6.07;;
8482;SDS011;4278;42.668;23.312;2022-10-28T05:31:17;18.83;;;6.57;;
8482;SDS011;4278;42.668;23.312;2022-10-28T05:33:44;11.97;;;6.43;;
8482;SDS011;4278;42.668;23.312;2022-10-28T05:36:10;10.00;;;6.63;;
8482;SDS011;4278;42.668;23.312;2022-10-28T05:38:37;16.97;;;6.37;;
8482;SDS011;4278;42.668;23.312;2022-10-28T05:41:04;16.07;;;7.40;;
8482;SDS011;4278;42.668;23.312;2022-10-28T05:43:36;15.10;;;7.40;;
8482;SDS011;4278;42.668;23.312;2022-10-28T05:46:02;17.70;;;7.77;;
8482;SDS011;4278;42.668;23.312;2022-10-28T05:48:29;14.43;;;7.13;;
8482;SDS011;4278;42.668;23.312;2022-10-28T05:50:55;18.90;;;7.77;;
8482;SDS011;4278;42.668;23.312;2022-10-28T05:53:22;16.67;;;7.50;;
8482;SDS011;4278;42.668;23.312;2022-10-28T05:55:48;18.27;;;8.50;;
8482;SDS011;4278;42.668;23.312;2022-10-28T05:58:15;15.33;;;8.33;;
8482;SDS011;4278;42.668;23.312;2022-10-28T06:00:43;15.20;;;8.03;;
8482;SDS011;4278;42.668;23.312;2022-10-28T06:03:10;15.83;;;8.13;;
8482;SDS011;4278;42.668;23.312;2022-10-28T06:05:37;17.43;;;7.97;;
8482;SDS011;4278;42.668;23.312;2022-10-28T06:08:04;23.73;;;7.80;;
8482;SDS011;4278;42.668;23.312;2022-10-28T06:10:31;16.53;;;8.03;;
8482;SDS011;4278;42.668;23.312;2022-10-28T06:12:57;21.30;;;9.33;;
8482;SDS011;4278;42.668;23.312;2022-10-28T06:15:24;17.33;;;8.83;;
8482;SDS011;4278;42.668;23.312;2022-10-28T06:17:52;19.70;;;9.10;;
8482;SDS011;4278;42.668;23.312;2022-10-28T06:20:18;16.67;;;8.27;;
8482;SDS011;4278;42.668;23.312;2022-10-28T06:22:48;19.90;;;9.00;;
8482;SDS011;4278;42.668;23.312;2022-10-28T06:25:15;16.37;;;9.13;;
8482;SDS011;4278;42.668;23.312;2022-10-28T06:27:41;19.47;;;10.20;;
8482;SDS011;4278;42.668;23.312;2022-10-28T06:30:08;17.93;;;9.13;;
8482;SDS011;4278;42.668;23.312;2022-10-28T06:32:35;21.57;;;9.10;;
8482;SDS011;4278;42.668;23.312;2022-10-28T06:35:03;16.83;;;8.93;;
8482;SDS011;4278;42.668;23.312;2022-10-28T06:37:29;21.27;;;9.17;;
8482;SDS011;4278;42.668;23.312;2022-10-28T06:39:56;15.77;;;8.87;;
8482;SDS011;4278;42.668;23.312;2022-10-28T06:42:24;19.10;;;9.33;;
8482;SDS011;4278;42.668;23.312;2022-10-28T06:44:51;16.43;;;8.83;;
8482;SDS011;4278;42.668;23.312;2022-10-28T06:47:18;20.37;;;9.23;;
8482;SDS011;4278;42.668;23.312;2022-10-28T06:49:45;14.33;;;8.63;;
8482;SDS011;4278;42.668;23.312;2022-10-28T06:52:13;23.30;;;9.53;;
8482;SDS011;4278;42.668;23.312;2022-10-28T06:54:39;21.37;;;10.30;;
8482;SDS011;4278;42.668;23.312;2022-10-28T06:57:07;20.23;;;8.60;;
8482;SDS011;4278;42.668;23.312;2022-10-28T06:59:34;16.87;;;8.97;;
8482;SDS011;4278;42.668;23.312;2022-10-28T07:02:00;16.90;;;9.10;;
8482;SDS011;4278;42.668;23.312;2022-10-28T07:04:27;19.30;;;9.83;;
8482;SDS011;4278;42.668;23.312;2022-10-28T07:06:54;15.87;;;9.27;;
8482;SDS011;4278;42.668;23.312;2022-10-28T07:09:22;16.93;;;9.33;;
8482;SDS011;4278;42.668;23.312;2022-10-28T07:11:49;18.47;;;10.00;;
8482;SDS011;4278;42.668;23.312;2022-10-28T07:14:15;26.90;;;9.30;;
8482;SDS011;4278;42.668;23.312;2022-10-28T07:16:42;19.23;;;10.27;;
8482;SDS011;4278;42.668;23.312;2022-10-28T07:19:08;21.40;;;9.97;;
8482;SDS011;4278;42.668;23.312;2022-10-28T07:21:35;23.27;;;9.30;;
8482;SDS011;4278;42.668;23.312;2022-10-28T07:24:01;18.87;;;9.50;;
8482;SDS011;4278;42.668;23.312;2022-10-28T07:26:29;16.27;;;9.50;;
8482;SDS011;4278;42.668;23.312;2022-10-28T07:28:56;19.50;;;9.53;;
8482;SDS011;4278;42.668;23.312;2022-10-28T07:31:22;15.70;;;8.83;;
8482;SDS011;4278;42.668;23.312;2022-10-28T07:33:52;15.83;;;10.13;;
8482;SDS011;4278;42.668;23.312;2022-10-28T07:36:19;12.93;;;8.07;;
8482;SDS011;4278;42.668;23.312;2022-10-28T07:38:47;25.20;;;10.53;;
8482;SDS011;4278;42.668;23.312;2022-10-28T07:41:14;17.40;;;9.87;;
8482;SDS011;4278;42.668;23.312;2022-10-28T07:43:41;16.83;;;8.57;;
8482;SDS011;4278;42.668;23.312;2022-10-28T07:46:08;14.87;;;8.53;;
8482;SDS011;4278;42.668;23.312;2022-10-28T07:48:35;16.03;;;9.93;;
8482;SDS011;4278;42.668;23.312;2022-10-28T07:51:02;20.07;;;10.63;;
8482;SDS011;4278;42.668;23.312;2022-10-28T07:53:29;17.53;;;9.40;;
8482;SDS011;4278;42.668;23.312;2022-10-28T07:55:56;19.37;;;9.30;;
8482;SDS011;4278;42.668;23.312;2022-10-28T07:58:22;20.93;;;10.20;;
8482;SDS011;4278;42.668;23.312;2022-10-28T08:00:50;17.33;;;9.37;;
8482;SDS011;4278;42.668;23.312;2022-10-28T08:03:17;21.47;;;9.87;;
8482;SDS011;4278;42.668;23.312;2022-10-28T08:05:43;15.77;;;8.63;;
8482;SDS011;4278;42.668;23.312;2022-10-28T08:08:10;16.73;;;9.13;;
8482;SDS011;4278;42.668;23.312;2022-10-28T08:10:36;19.97;;;8.63;;
8482;SDS011;4278;42.668;23.312;2022-10-28T08:13:03;19.83;;;8.57;;
8482;SDS011;4278;42.668;23.312;2022-10-28T08:15:31;22.00;;;8.63;;
8482;SDS011;4278;42.668;23.312;2022-10-28T08:17:59;16.03;;;9.00;;
8482;SDS011;4278;42.668;23.312;2022-10-28T08:20:25;17.40;;;8.93;;
8482;SDS011;4278;42.668;23.312;2022-10-28T08:22:51;17.27;;;8.33;;
8482;SDS011;4278;42.668;23.312;2022-10-28T08:25:18;21.83;;;9.47;;
8482;SDS011;4278;42.668;23.312;2022-10-28T08:27:44;22.10;;;8.97;;
8482;SDS011;4278;42.668;23.312;2022-10-28T08:30:11;18.00;;;8.77;;
8482;SDS011;4278;42.668;23.312;2022-10-28T08:32:37;16.67;;;9.40;;
8482;SDS011;4278;42.668;23.312;2022-10-28T08:35:06;18.03;;;9.07;;
8482;SDS011;4278;42.668;23.312;2022-10-28T08:37:32;22.80;;;11.47;;
8482;SDS011;4278;42.668;23.312;2022-10-28T08:39:59;17.13;;;9.83;;
8482;SDS011;4278;42.668;23.312;2022-10-28T08:42:29;20.57;;;9.67;;
8482;SDS011;4278;42.668;23.312;2022-10-28T08:45:00;18.77;;;10.27;;
8482;SDS011;4278;42.668;23.312;2022-10-28T08:47:35;26.50;;;10.20;;
8482;SDS011;4278;42.668;23.312;2022-10-28T08:50:03;16.67;;;9.77;;
8482;SDS011;4278;42.668;23.312;2022-10-28T08:52:34;13.20;;;9.03;;
8482;SDS011;4278;42.668;23.312;2022-10-28T08:55:05;17.97;;;9.33;;
8482;SDS011;4278;42.668;23.312;2022-10-28T08:57:35;18.53;;;10.73;;
8482;SDS011;4278;42.668;23.312;2022-10-28T09:00:04;14.87;;;9.83;;
8482;SDS011;4278;42.668;23.312;2022-10-28T09:02:32;17.90;;;9.17;;
8482;SDS011;4278;42.668;23.312;2022-10-28T09:05:03;25.20;;;9.90;;
8482;SDS011;4278;42.668;23.312;2022-10-28T09:07:31;21.83;;;10.30;;
8482;SDS011;4278;42.668;23.312;2022-10-28T09:10:00;18.33;;;8.67;;
8482;SDS011;4278;42.668;23.312;2022-10-28T09:12:29;20.03;;;11.00;;
8482;SDS011;4278;42.668;23.312;2022-10-28T09:15:04;21.90;;;10.23;;
8482;SDS011;4278;42.668;23.312;2022-10-28T09:17:39;19.63;;;9.87;;
8482;SDS011;4278;42.668;23.312;2022-10-28T09:20:10;15.70;;;7.57;;
8482;SDS011;4278;42.668;23.312;2022-10-28T09:22:42;17.03;;;8.93;;
8482;SDS011;4278;42.668;23.312;2022-10-28T09:25:14;18.57;;;9.27;;
8482;SDS011;4278;42.668;23.312;2022-10-28T09:27:46;14.97;;;7.23;;
8482;SDS011;4278;42.668;23.312;2022-10-28T09:33:01;12.27;;;6.43;;
8482;SDS011;4278;42.668;23.312;2022-10-28T09:35:32;12.70;;;6.73;;
8482;SDS011;4278;42.668;23.312;2022-10-28T09:38:04;12.43;;;7.30;;
8482;SDS011;4278;42.668;23.312;2022-10-28T09:40:34;11.13;;;6.60;;
8482;SDS011;4278;42.668;23.312;2022-10-28T09:43:04;15.53;;;6.23;;
8482;SDS011;4278;42.668;23.312;2022-10-28T09:45:32;11.03;;;6.47;;
8482;SDS011;4278;42.668;23.312;2022-10-28T09:48:02;13.40;;;6.57;;
8482;SDS011;4278;42.668;23.312;2022-10-28T09:50:31;10.70;;;6.83;;
8482;SDS011;4278;42.668;23.312;2022-10-28T09:52:58;11.40;;;8.53;;
8482;SDS011;4278;42.668;23.312;2022-10-28T09:55:26;14.03;;;6.97;;
8482;SDS011;4278;42.668;23.312;2022-10-28T09:57:54;10.20;;;5.20;;
8482;SDS011;4278;42.668;23.312;2022-10-28T10:00:21;11.07;;;4.77;;
8482;SDS011;4278;42.668;23.312;2022-10-28T10:02:47;11.47;;;4.93;;
8482;SDS011;4278;42.668;23.312;2022-10-28T10:05:16;14.70;;;8.30;;
8482;SDS011;4278;42.668;23.312;2022-10-28T10:07:43;12.30;;;8.40;;
8482;SDS011;4278;42.668;23.312;2022-10-28T10:10:12;10.73;;;7.47;;
8482;SDS011;4278;42.668;23.312;2022-10-28T10:12:39;15.90;;;8.33;;
8482;SDS011;4278;42.668;23.312;2022-10-28T10:15:10;15.43;;;7.77;;
8482;SDS011;4278;42.668;23.312;2022-10-28T10:17:39;12.13;;;7.47;;
8482;SDS011;4278;42.668;23.312;2022-10-28T10:20:07;6.57;;;3.77;;
8482;SDS011;4278;42.668;23.312;2022-10-28T10:22:34;9.90;;;4.57;;
8482;SDS011;4278;42.668;23.312;2022-10-28T10:25:02;12.43;;;4.63;;
8482;SDS011;4278;42.668;23.312;2022-10-28T10:27:29;9.37;;;4.87;;
8482;SDS011;4278;42.668;23.312;2022-10-28T10:29:56;9.90;;;4.45;;
8482;SDS011;4278;42.668;23.312;2022-10-28T10:32:25;12.02;;;5.43;;
8482;SDS011;4278;42.668;23.312;2022-10-28T10:34:55;10.07;;;6.68;;
8482;SDS011;4278;42.668;23.312;2022-10-28T10:37:21;5.78;;;2.78;;
8482;SDS011;4278;42.668;23.312;2022-10-28T10:40:00;6.40;;;4.10;;
8482;SDS011;4278;42.668;23.312;2022-10-28T10:42:26;7.28;;;4.57;;
8482;SDS011;4278;42.668;23.312;2022-10-28T10:44:55;4.75;;;3.30;;
8482;SDS011;4278;42.668;23.312;2022-10-28T10:47:25;6.18;;;3.83;;
8482;SDS011;4278;42.668;23.312;2022-10-28T10:49:52;5.85;;;3.15;;
8482;SDS011;4278;42.668;23.312;2022-10-28T10:52:20;5.05;;;3.08;;
8482;SDS011;4278;42.668;23.312;2022-10-28T10:54:55;7.68;;;4.22;;
8482;SDS011;4278;42.668;23.312;2022-10-28T10:57:22;4.18;;;3.30;;
8482;SDS011;4278;42.668;23.312;2022-10-28T10:59:51;3.60;;;2.67;;
8482;SDS011;4278;42.668;23.312;2022-10-28T11:02:19;4.30;;;2.70;;
8482;SDS011;4278;42.668;23.312;2022-10-28T11:04:50;4.30;;;2.90;;
8482;SDS011;4278;42.668;23.312;2022-10-28T11:07:17;4.75;;;2.50;;
8482;SDS011;4278;42.668;23.312;2022-10-28T11:09:45;2.58;;;2.20;;
8482;SDS011;4278;42.668;23.312;2022-10-28T11:12:13;4.78;;;2.58;;
8482;SDS011;4278;42.668;23.312;2022-10-28T11:14:39;4.85;;;2.67;;
8482;SDS011;4278;42.668;23.312;2022-10-28T11:17:21;5.32;;;2.80;;
8482;SDS011;4278;42.668;23.312;2022-10-28T11:19:49;5.85;;;2.45;;
8482;SDS011;4278;42.668;23.312;2022-10-28T11:22:19;4.00;;;2.63;;
8482;SDS011;4278;42.668;23.312;2022-10-28T11:25:07;2.28;;;1.80;;
8482;SDS011;4278;42.668;23.312;2022-10-28T11:27:39;4.70;;;2.10;;
8482;SDS011;4278;42.668;23.312;2022-10-28T11:30:09;4.28;;;2.20;;
8482;SDS011;4278;42.668;23.312;2022-10-28T11:32:41;4.47;;;2.30;;
8482;SDS011;4278;42.668;23.312;2022-10-28T11:35:25;5.43;;;2.00;;
8482;SDS011;4278;42.668;23.312;2022-10-28T11:37:57;2.20;;;1.80;;
8482;SDS011;4278;42.668;23.312;2022-10-28T11:40:28;2.60;;;1.63;;
8482;SDS011;4278;42.668;23.312;2022-10-28T11:43:01;3.28;;;2.28;;
8482;SDS011;4278;42.668;23.312;2022-10-28T11:45:33;4.22;;;2.25;;
8482;SDS011;4278;42.668;23.312;2022-10-28T11:48:06;2.72;;;2.33;;
8482;SDS011;4278;42.668;23.312;2022-10-28T11:50:36;5.05;;;3.00;;
8482;SDS011;4278;42.668;23.312;2022-10-28T11:53:15;3.78;;;2.10;;
8482;SDS011;4278;42.668;23.312;2022-10-28T11:55:46;5.97;;;1.90;;
8482;SDS011;4278;42.668;23.312;2022-10-28T11:58:18;3.95;;;2.75;;
8482;SDS011;4278;42.668;23.312;2022-10-28T12:00:49;3.47;;;1.92;;
8482;SDS011;4278;42.668;23.312;2022-10-28T12:03:28;5.65;;;2.10;;
8482;SDS011;4278;42.668;23.312;2022-10-28T12:06:03;5.18;;;2.17;;
8482;SDS011;4278;42.668;23.312;2022-10-28T12:08:35;5.38;;;2.47;;
8482;SDS011;4278;42.668;23.312;2022-10-28T12:11:09;3.47;;;2.00;;
8482;SDS011;4278;42.668;23.312;2022-10-28T12:13:38;6.50;;;2.40;;
8482;SDS011;4278;42.668;23.312;2022-10-28T12:16:09;7.90;;;2.97;;
8482;SDS011;4278;42.668;23.312;2022-10-28T12:18:42;4.55;;;2.45;;
8482;SDS011;4278;42.668;23.312;2022-10-28T12:21:13;4.93;;;2.67;;
8482;SDS011;4278;42.668;23.312;2022-10-28T12:23:40;4.60;;;2.78;;
8482;SDS011;4278;42.668;23.312;2022-10-28T12:26:09;4.30;;;2.85;;
8482;SDS011;4278;42.668;23.312;2022-10-28T12:28:39;5.97;;;2.55;;
8482;SDS011;4278;42.668;23.312;2022-10-28T12:31:14;4.22;;;2.58;;
8482;SDS011;4278;42.668;23.312;2022-10-28T12:33:42;2.55;;;2.22;;
8482;SDS011;4278;42.668;23.312;2022-10-28T12:36:17;4.78;;;2.40;;
8482;SDS011;4278;42.668;23.312;2022-10-28T12:38:46;5.30;;;2.53;;
8482;SDS011;4278;42.668;23.312;2022-10-28T12:41:16;4.78;;;2.72;;
8482;SDS011;4278;42.668;23.312;2022-10-28T12:43:43;6.45;;;2.92;;
8482;SDS011;4278;42.668;23.312;2022-10-28T12:46:12;3.55;;;2.67;;
8482;SDS011;4278;42.668;23.312;2022-10-28T12:48:45;3.80;;;2.58;;
8482;SDS011;4278;42.668;23.312;2022-10-28T12:51:15;5.30;;;2.88;;
8482;SDS011;4278;42.668;23.312;2022-10-28T12:53:45;3.60;;;3.00;;
8482;SDS011;4278;42.668;23.312;2022-10-28T12:56:15;3.80;;;2.75;;
8482;SDS011;4278;42.668;23.312;2022-10-28T12:58:49;3.50;;;3.03;;
8482;SDS011;4278;42.668;23.312;2022-10-28T13:01:17;4.80;;;2.90;;
8482;SDS011;4278;42.668;23.312;2022-10-28T13:03:44;6.40;;;2.90;;
8482;SDS011;4278;42.668;23.312;2022-10-28T13:06:26;5.35;;;2.72;;
8482;SDS011;4278;42.668;23.312;2022-10-28T13:09:06;10.02;;;5.47;;
8482;SDS011;4278;42.668;23.312;2022-10-28T13:11:47;8.70;;;3.70;;
8482;SDS011;4278;42.668;23.312;2022-10-28T13:14:22;4.78;;;3.05;;
8482;SDS011;4278;42.668;23.312;2022-10-28T13:16:55;8.77;;;2.92;;
8482;SDS011;4278;42.668;23.312;2022-10-28T13:19:32;3.95;;;2.85;;
8482;SDS011;4278;42.668;23.312;2022-10-28T13:22:09;7.50;;;2.90;;
8482;SDS011;4278;42.668;23.312;2022-10-28T13:24:44;7.43;;;3.08;;
8482;SDS011;4278;42.668;23.312;2022-10-28T13:27:12;5.38;;;2.80;;
8482;SDS011;4278;42.668;23.312;2022-10-28T13:29:39;3.47;;;2.42;;
8482;SDS011;4278;42.668;23.312;2022-10-28T13:32:15;3.97;;;2.75;;
8482;SDS011;4278;42.668;23.312;2022-10-28T13:34:48;4.22;;;2.67;;
8482;SDS011;4278;42.668;23.312;2022-10-28T13:37:16;3.55;;;2.38;;
8482;SDS011;4278;42.668;23.312;2022-10-28T13:39:46;4.60;;;2.78;;
8482;SDS011;4278;42.668;23.312;2022-10-28T13:42:43;4.00;;;2.80;;
8482;SDS011;4278;42.668;23.312;2022-10-28T13:48:17;3.25;;;2.95;;
8482;SDS011;4278;42.668;23.312;2022-10-28T13:51:03;8.75;;;2.92;;
8482;SDS011;4278;42.668;23.312;2022-10-28T13:53:54;6.82;;;3.25;;
8482;SDS011;4278;42.668;23.312;2022-10-28T13:56:34;4.03;;;2.30;;
8482;SDS011;4278;42.668;23.312;2022-10-28T13:59:04;4.53;;;2.67;;
8482;SDS011;4278;42.668;23.312;2022-10-28T14:04:23;8.57;;;3.30;;
8482;SDS011;4278;42.668;23.312;2022-10-28T14:06:59;3.28;;;2.50;;
8482;SDS011;4278;42.668;23.312;2022-10-28T14:09:26;3.53;;;2.60;;
8482;SDS011;4278;42.668;23.312;2022-10-28T14:17:37;4.65;;;2.88;;
8482;SDS011;4278;42.668;23.312;2022-10-28T14:20:05;3.58;;;2.70;;
8482;SDS011;4278;42.668;23.312;2022-10-28T14:22:32;5.10;;;2.63;;
8482;SDS011;4278;42.668;23.312;2022-10-28T14:24:59;7.20;;;3.05;;
8482;SDS011;4278;42.668;23.312;2022-10-28T14:27:26;3.70;;;2.47;;
8482;SDS011;4278;42.668;23.312;2022-10-28T14:30:10;4.97;;;2.60;;
8482;SDS011;4278;42.668;23.312;2022-10-28T14:32:42;4.78;;;2.10;;
8482;SDS011;4278;42.668;23.312;2022-10-28T14:35:17;8.27;;;2.78;;
8482;SDS011;4278;42.668;23.312;2022-10-28T14:40:41;5.82;;;2.92;;
8482;SDS011;4278;42.668;23.312;2022-10-28T14:46:14;9.40;;;3.03;;
8482;SDS011;4278;42.668;23.312;2022-10-28T14:48:48;6.93;;;3.00;;
8482;SDS011;4278;42.668;23.312;2022-10-28T14:51:16;9.13;;;3.30;;
8482;SDS011;4278;42.668;23.312;2022-10-28T14:53:43;6.38;;;2.80;;
8482;SDS011;4278;42.668;23.312;2022-10-28T14:56:11;7.20;;;3.05;;
8482;SDS011;4278;42.668;23.312;2022-10-28T14:58:42;10.90;;;3.28;;
8482;SDS011;4278;42.668;23.312;2022-10-28T15:01:25;7.38;;;4.22;;
8482;SDS011;4278;42.668;23.312;2022-10-28T15:03:55;7.90;;;4.20;;
8482;SDS011;4278;42.668;23.312;2022-10-28T15:06:33;8.15;;;4.03;;
8482;SDS011;4278;42.668;23.312;2022-10-28T15:09:12;7.38;;;3.67;;
8482;SDS011;4278;42.668;23.312;2022-10-28T15:11:41;12.27;;;5.60;;
8482;SDS011;4278;42.668;23.312;2022-10-28T15:14:11;9.07;;;3.80;;
8482;SDS011;4278;42.668;23.312;2022-10-28T15:16:44;10.95;;;4.45;;
8482;SDS011;4278;42.668;23.312;2022-10-28T15:19:13;9.10;;;3.90;;
8482;SDS011;4278;42.668;23.312;2022-10-28T15:21:42;10.27;;;5.10;;
8482;SDS011;4278;42.668;23.312;2022-10-28T15:24:11;12.27;;;4.80;;
8482;SDS011;4278;42.668;23.312;2022-10-28T15:26:37;8.60;;;4.27;;
8482;SDS011;4278;42.668;23.312;2022-10-28T15:29:04;14.17;;;4.53;;
8482;SDS011;4278;42.668;23.312;2022-10-28T15:31:31;10.23;;;4.30;;